RESULTATS »

INSCRITS PRESENTATS ACABEN RETIRATS DESQUALIFICATS DIST. TRAM 1 DIST. TRAM 2 DIST. TRAM 3 TEMP. EXT TEMP. AIGUA
55 266 248 13 5 750 24 5 30 27

CLASSIFICACIÓ

MASCULÍ FEMENÍ CATEGORIES CLUBS (MASCULINA) CLUBS (FEMENINA) INDIVIDUALS GRUPS D'EDAT

LLOCDORSALNOMCLUBCAT.T.META| P.Tram 1 || P.Tram 2 |Km/hTEMPS| P.Tram 3 |PARC_1PARC_2
1 5118EVA LEDESMA CALVETCLUB ESPORTIU TRI 4.40ABF01:21:105400:10:38000:00:000.0000:00:00000:00:0000:01:3500:00:00
2 5143MARTA SANCHEZ HERNANDEZC.N. VIC-ETBSUB23F01:21:191800:09:356100:48:1529.8400:57:506900:23:2900:01:4200:00:00
3 40ANNA FLAQUER PORTIFASTTRIATLON - C.N. MONTJABF01:24:552200:09:4012000:52:4627.2901:02:264200:22:2900:01:4600:00:00
4 3516NURIA PEIX TARRESC.N. VIC-ETBABF01:25:284600:10:248800:50:2128.6001:00:4510500:24:4300:01:3900:00:00
5 22DOLÇA OLLE GATELLFASTTRIATLON - C.N. MONTJABF01:26:227300:11:119400:50:5528.2801:02:069600:24:1600:02:0700:00:00
6 1824CLAUDIA LUNA BONACHERAC.N. MATAROSUB23F01:27:288700:11:2911800:52:2827.4501:03:577000:23:3100:01:4300:00:00
7 6259MAYALEN NORIEGA BELAUSTEGC.N. MATAROABF01:28:548900:11:318400:50:0628.7401:01:3716600:27:1700:01:5800:00:00
8 1819NEUS VIDAL PUCHADESC.N. SABADELLABF01:30:0213000:12:3510300:51:3327.9301:04:0813600:25:5400:01:5100:00:00
9 21AIDA FABREGA ARGERICHC.N. MATAROABF01:30:1410700:11:5311300:52:1727.5401:04:1013800:26:0400:02:0900:00:00
10 4095EMANUELA VENTURELLIFASTTRIATLON - C.N. MONTJABF01:30:4714900:13:1011500:52:2027.5201:05:3012000:25:1700:02:1100:00:00
11 1859VERÓNICA ANDREA AVENI RAPC.N. VIC-ETBV1F01:31:266600:11:0513700:54:1926.5101:05:2413700:26:0200:01:5700:00:00
12 60ANABEL GRACIA GARASAFASTTRIATLON - C.N. MONTJV1F01:31:428300:11:2413200:54:0326.6401:05:2714400:26:1500:02:0000:00:00
13 6214SOFIA AGUAYO MAURIPRAT TRIATLO 1994SUB23F01:32:353300:09:5714900:55:2925.9501:05:2616200:27:0900:01:5200:00:00
14 4003TANIA GUERRA ROMEROPRAT TRIATLO 1994ABF01:33:3112200:12:2414700:55:1426.0701:07:3813400:25:5300:01:5800:00:00
15 6080JUDIT UGAS MERINOC.N. SABADELLCDF01:33:3915500:13:1815000:55:3225.9301:08:5010900:24:4900:01:5100:00:00
16 3558TERESA PONS MUNILLPRAT TRIATLO 1994V1F01:33:5517400:14:0312800:53:4826.7701:07:5113900:26:0400:02:2000:00:00
17 6034ANNA VALLVERDÚ CORTADACLUB ESPORTIU TRI 4.40JNF01:34:1710800:11:5315100:55:4625.8201:07:3915300:26:3800:01:5800:00:00
18 1816NATALIA BADIA BUSQUETSCLUB ESPORTIU TRI 4.40ABF01:34:1712700:12:2916100:56:4025.4101:09:0911700:25:0800:02:0000:00:00
19 6129LORENA ESTEBAN PATOFASTTRIATLON - C.N. MONTJABF01:34:5411500:12:0815900:56:2725.5101:08:3514800:26:1900:02:1600:00:00
20 17JESSICA BRILLAS FERNANDEZC.N. MATAROSUB23F01:34:557500:11:1315500:56:0825.6501:07:2117500:27:3400:01:4900:00:00
21 109EVA RIBALTA FERRERCLUB TRIATLO PROSANV1F01:35:2817700:14:1116700:57:0825.2001:11:199400:24:0900:02:0600:00:00
22 34JUDITH ANDUJAR PIÑOLCLUB TRIATLO GRANOLLERSABF01:35:4913500:12:4317700:57:4124.9601:10:2412400:25:2500:02:0600:00:00
23 59MARTA ROMANCE OMSC.N. SABADELLCDF01:36:179000:11:3114500:55:0626.1301:06:3720100:29:4000:01:5100:00:00
24 1838MARIA ANDREU OLIVERASC.N. MATAROCDF01:38:225200:10:3218800:59:0024.4101:09:3219200:28:5000:02:0800:00:00
25 6238PAULA GUERRERO RUSIÑOLC.N. SABADELLJNF01:39:204500:10:2320001:01:0223.5901:11:2518000:27:5500:02:0800:00:00
26 3501MIRIAM CODINA CASTILLOCLUB TRIATLO GRANOLLERSABF01:39:4415200:13:1519000:59:1124.3301:12:2616800:27:1800:02:2900:00:00
27 5137AITANA DOMÈNECH MARTÍNEZPRAT TRIATLO 1994ABF01:40:3217900:14:1419701:00:0223.9901:14:1614600:26:1600:02:4200:00:00
28 1958KARLA ROSELL REYNAC.N. VIC-ETBSUB23F01:40:467600:11:1516500:57:0425.2301:08:1922300:32:2700:01:5300:00:00
29 4008MIRIAM COMAS SERRATTGCBINNABF01:41:4218400:14:2318700:58:5624.4301:13:1918500:28:2300:02:4500:00:00
30 2196ALBA BELLOSTAS CARRERACLUB ESPORTIU TRI 4.40JNF01:42:1218900:14:3519100:59:1524.3001:13:5018400:28:2200:02:0700:00:00
31 4070SUSANA CASTAN SALINASCLUB ESPORTIU PRORUNNERSV1F01:42:4521900:16:2018500:58:4924.4801:15:0917600:27:3600:03:0600:00:00
32 3566SARA DE DIEGO NAVARRACLUB ESPORTIU PRORUNNERSABF01:42:4613600:12:4620301:02:0023.2301:14:4618200:28:0000:02:2600:00:00
33 276NURIA RIBALTA FERRERCLUB TRIATLO PROSANV1F01:43:1424000:18:2517600:57:3724.9901:16:0216300:27:1200:02:2400:00:00
34 4041CAROLINA APARICIO CABANILC.N. SABADELLABF01:43:3420200:15:0019500:59:3024.2001:14:3019500:29:0400:02:3700:00:00
35 2778BEGOÑA DE LA ROCHA MURTGCBINNABF01:44:3921600:16:0819300:59:1824.2801:15:2619700:29:1300:03:0300:00:00
36 6219MIRIAM EGIDO BAYODCLUB TRIATLO ATLESV1F01:45:0918500:14:2920201:01:4323.3301:16:1219300:28:5700:02:4600:00:00
37 1410SARAH FURLAN AMARANTEC.E. VILA OLIMPICAABF01:46:1420000:14:5618900:59:0624.3701:14:0222200:32:1200:02:3400:00:00
38 1624VANESSA ARRIBAS VALENCIACLUB ESPORTIU PRORUNNERSABF01:47:4116200:13:3921601:04:4222.2601:18:2119900:29:2000:03:1600:00:00
39 6138SARA DELPUEYO CASANOVAC.E. RAYOTEAMABF01:49:1215300:13:1621401:04:1522.4101:17:3121700:31:4100:02:1900:00:00
40 6073VICTORIA LEON RODRIGUEZC.N. VIC-ETBV1F01:50:3222700:16:5421201:03:4922.5601:20:4320200:29:4900:02:2300:00:00
41 6062MIRIAM CATALÁN GILC.E. RAYOTEAMABF01:50:5017200:13:5720701:02:3223.0301:16:2923100:34:2100:02:3300:00:00
42 6180ANNA ILLA GALERACLUB TRIATLO BAIX MONTSENCDF01:51:0020300:15:0622001:05:4821.8801:20:5420600:30:0600:03:4000:00:00
43 6181EVA BUSQUETS BOSCHCLUB TRIATLO BAIX MONTSENCDF01:51:1517100:13:5622401:07:2021.3901:21:1620500:29:5900:03:0400:00:00
44 6043ALICIA CONDE LÓPEZC.E. VILA OLIMPICAABF01:51:4623800:18:1221901:05:3421.9601:23:4618100:28:0000:02:5400:00:00
45 6249MARIA JOSE IBAÑEZ MONTESCLUB TRIATLO ATLESV1F01:53:1014500:13:0122301:07:0121.4901:20:0222800:33:0800:03:0100:00:00
46 4024SONIA MARTINEZ TIJERASCLUB TRIATLO BAIX MONTSENABF01:53:4016100:13:3722901:09:2820.7301:23:0520800:30:3500:02:5200:00:00
47 6272MARTA PLANELLAS BACHSCLUB TRIATLO GRANOLLERSV1F01:56:0622800:16:5922701:09:1120.8101:26:1020400:29:5600:02:5500:00:00
48 351CLARA MAS MONRASCLUB TRIATLO GRANOLLERSABF01:57:3023100:17:3621001:03:2822.6901:21:0423500:36:2600:02:3200:00:00
49 6133ESTER DE LA FUENTE ALMEIDC.E. VILA OLIMPICAABF02:00:0023200:17:4323001:10:0820.5301:27:5122000:32:0900:03:5300:00:00
50 758MERCÈ BADIA MORACLUB TRIATLO PROSANV1F02:01:0822400:16:4823101:10:2420.4501:27:1223000:33:5600:03:3100:00:00
51 1849TONA RIBAS DUCHC.E. VILA OLIMPICAV2F02:04:2323900:18:2523501:13:2719.6101:31:5222400:32:3100:03:1600:00:00
52 6262REBECCA ROHDETG TRIATLO SITGESV1F02:05:3223400:17:5223201:10:3420.4101:28:2623600:37:0600:02:4500:00:00
53 1904DANIELA GOMIS PÉREZC.E. RAYOTEAMABF02:06:1121100:15:4923601:13:5919.4601:29:4823400:36:2300:03:3400:00:00
54 731MAITE DELGADO MARTÍNEZCLUB TRIATLO ATLESV1F02:07:3918600:14:30000:00:000.0000:00:00000:00:0000:04:1400:00:00


NF 341SANDRA GALCERAN MENDIZABAPRAT TRIATLO 1994JNF00:00:00000:17:40000:00:000.0000:00:00000:00:0000:02:3600:00:00
NF 6029RADKA SVARCOVACLUB ESPORTIU PRORUNNERSABF00:00:00000:17:00000:00:000.0000:00:00000:00:0000:03:0500:00:00
NF 6040MARTA MARIN BLANCOTG TRIATLO SITGESABF00:00:00000:18:27000:00:000.0000:00:00000:00:0000:02:4800:00:00
NF 5064BERTA HIJOS GAGOC.E. VILA OLIMPICAABF00:00:00000:17:06001:10:1820.4801:27:24000:00:0000:03:3500:00:00




FEDERACIÓ CATALANA DE TRIATLÓ
SEU CENTRAL I CORRESPONDÈNCIA: Rambla Guipúscoa 23-25 2on-D · 08018 Barcelona · Tel / Fax : 93 307 93 35
ATENCIÓ AL PÚBLIC: Passeig Joan de Borbó, 93 (Club Natació Barcelona) · 08039 Barcelona · Tel / Fax : 93 307 93 32